createdAt,value
2022-10-17T00:02:10.299Z,16.17
2022-10-17T00:04:37.009Z,10.50
2022-10-17T00:07:03.701Z,12.37
2022-10-17T00:09:30.442Z,6.27
2022-10-17T00:11:57.125Z,6.57
2022-10-17T00:14:23.745Z,10.50
2022-10-17T00:16:50.367Z,7.33
2022-10-17T00:19:17.025Z,10.93
2022-10-17T00:21:43.673Z,9.47
2022-10-17T00:24:10.312Z,8.90
2022-10-17T00:26:36.962Z,15.83
2022-10-17T00:29:03.710Z,9.50
2022-10-17T00:31:30.652Z,9.17
2022-10-17T00:33:57.322Z,13.57
2022-10-17T00:36:26.544Z,16.47
2022-10-17T00:38:58.992Z,10.70
2022-10-17T00:41:30.150Z,8.37
2022-10-17T00:44:02.844Z,8.40
2022-10-17T00:46:35.523Z,6.57
2022-10-17T00:49:08.366Z,8.03
2022-10-17T00:51:42.614Z,6.77
2022-10-17T00:54:11.403Z,5.60
2022-10-17T00:56:40.412Z,15.63
2022-10-17T00:59:12.322Z,7.70
2022-10-17T01:01:47.121Z,12.73
2022-10-17T01:04:13.882Z,8.23
2022-10-17T01:06:40.446Z,8.93
2022-10-17T01:09:07.040Z,10.63
2022-10-17T01:11:56.982Z,6.20
2022-10-17T01:14:37.910Z,5.93
2022-10-17T01:17:11.487Z,11.60
2022-10-17T01:20:07.430Z,17.87
2022-10-17T01:23:04.463Z,7.70
2022-10-17T01:25:52.513Z,5.40
2022-10-17T01:28:37.476Z,9.00
2022-10-17T01:31:16.382Z,4.93
2022-10-17T01:33:45.985Z,4.80
2022-10-17T01:36:21.387Z,5.03
2022-10-17T01:38:58.989Z,5.50
2022-10-17T01:41:42.432Z,4.70
2022-10-17T01:44:18.139Z,6.37
2022-10-17T01:46:50.477Z,8.93
2022-10-17T01:49:21.837Z,6.80
2022-10-17T01:51:54.389Z,6.43
2022-10-17T01:54:36.737Z,8.37
2022-10-17T01:57:08.631Z,6.63
2022-10-17T01:59:41.004Z,14.20
2022-10-17T02:02:09.964Z,8.70
2022-10-17T02:04:37.602Z,6.57
2022-10-17T02:07:13.034Z,8.17
2022-10-17T02:09:40.615Z,15.50
2022-10-17T02:12:16.277Z,9.93
2022-10-17T02:14:55.281Z,21.47
2022-10-17T02:17:45.113Z,8.50
2022-10-17T02:20:22.774Z,12.27
2022-10-17T02:23:07.575Z,17.80
2022-10-17T02:25:41.562Z,35.00
2022-10-17T02:28:16.991Z,12.20
2022-10-17T02:30:51.873Z,8.27
2022-10-17T02:33:25.352Z,9.80
2022-10-17T02:36:03.160Z,8.53
2022-10-17T02:38:31.659Z,7.60
2022-10-17T02:40:59.124Z,4.50
2022-10-17T02:43:26.027Z,6.67
2022-10-17T02:45:52.874Z,18.83
2022-10-17T02:48:30.916Z,9.17
2022-10-17T02:51:09.738Z,9.97
2022-10-17T02:53:48.996Z,5.33
2022-10-17T02:56:21.631Z,8.00
2022-10-17T02:58:52.526Z,14.63
2022-10-17T03:01:19.804Z,7.27
2022-10-17T03:03:46.739Z,8.17
2022-10-17T03:06:13.523Z,7.73
2022-10-17T03:08:40.133Z,8.67
2022-10-17T03:11:07.026Z,9.93
2022-10-17T03:13:36.239Z,13.70
2022-10-17T03:16:06.337Z,9.70
2022-10-17T03:18:33.057Z,10.73
2022-10-17T03:21:01.196Z,13.40
2022-10-17T03:23:28.226Z,18.00
2022-10-17T03:25:55.309Z,12.33
2022-10-17T03:28:22.193Z,10.33
2022-10-17T03:30:48.958Z,6.93
2022-10-17T03:33:15.889Z,16.17
2022-10-17T03:35:42.727Z,11.60
2022-10-17T03:38:09.824Z,16.53
2022-10-17T03:40:36.868Z,9.67
2022-10-17T03:43:03.970Z,4.73
2022-10-17T03:45:30.656Z,9.73
2022-10-17T03:47:59.049Z,8.67
2022-10-17T03:50:26.047Z,5.20
2022-10-17T03:52:52.930Z,8.17
2022-10-17T03:55:19.524Z,9.27
2022-10-17T03:57:46.168Z,6.17
2022-10-17T04:00:14.966Z,12.07
2022-10-17T04:02:41.684Z,10.33
2022-10-17T04:05:12.596Z,5.57
2022-10-17T04:07:39.252Z,5.40
2022-10-17T04:10:07.148Z,5.23
2022-10-17T04:12:33.794Z,7.13
2022-10-17T04:15:00.478Z,11.63
2022-10-17T04:17:31.545Z,5.83
2022-10-17T04:20:01.489Z,7.83
2022-10-17T04:22:28.480Z,9.80
2022-10-17T04:24:55.275Z,10.70
2022-10-17T04:27:31.019Z,4.93
2022-10-17T04:29:58.113Z,8.63
2022-10-17T04:32:25.949Z,10.13
2022-10-17T04:35:15.465Z,5.93
2022-10-17T04:37:47.673Z,4.83
2022-10-17T04:40:17.954Z,4.97
2022-10-17T04:42:45.053Z,5.77
2022-10-17T04:45:14.825Z,5.10
2022-10-17T04:47:42.144Z,4.67
2022-10-17T04:50:09.238Z,5.67
2022-10-17T04:52:39.060Z,4.70
2022-10-17T04:55:07.932Z,6.53
2022-10-17T04:57:35.929Z,6.80
2022-10-17T05:00:15.535Z,3.87
2022-10-17T05:03:01.278Z,5.00
2022-10-17T05:05:29.210Z,7.17
2022-10-17T05:07:56.591Z,13.70
2022-10-17T05:10:26.428Z,10.00
2022-10-17T05:12:54.156Z,9.93
2022-10-17T05:15:23.565Z,5.70
2022-10-17T05:17:55.396Z,6.93
2022-10-17T05:20:22.814Z,4.63
2022-10-17T05:22:49.714Z,4.13
2022-10-17T05:25:17.811Z,4.03
2022-10-17T05:27:44.459Z,5.30
2022-10-17T05:30:11.479Z,4.13
2022-10-17T05:32:39.574Z,5.63
2022-10-17T05:35:07.604Z,5.80
2022-10-17T05:37:35.737Z,5.07
2022-10-17T05:40:03.726Z,3.97
2022-10-17T05:42:30.947Z,3.93
2022-10-17T05:44:58.465Z,7.10
2022-10-17T05:47:26.098Z,4.60
2022-10-17T05:49:52.794Z,4.70
2022-10-17T05:52:26.060Z,5.30
2022-10-17T05:55:10.251Z,5.07
2022-10-17T05:57:36.949Z,7.00
2022-10-17T06:00:07.183Z,5.17
2022-10-17T06:02:46.074Z,16.20
2022-10-17T06:05:15.109Z,3.40
2022-10-17T06:07:41.717Z,4.70
2022-10-17T06:10:09.209Z,9.07
2022-10-17T06:12:36.069Z,13.57
2022-10-17T06:15:02.810Z,4.53
2022-10-17T06:17:30.342Z,3.57
2022-10-17T06:19:57.818Z,4.63
2022-10-17T06:22:24.692Z,5.20
2022-10-17T06:24:53.080Z,4.40
2022-10-17T06:27:20.767Z,6.10
2022-10-17T06:29:47.938Z,7.33
2022-10-17T06:32:15.290Z,8.53
2022-10-17T06:34:45.355Z,10.23
2022-10-17T06:37:12.023Z,7.43
2022-10-17T06:39:40.383Z,14.83
2022-10-17T06:42:11.952Z,8.63
2022-10-17T06:44:55.174Z,9.87
2022-10-17T06:47:21.815Z,9.60
2022-10-17T06:49:49.889Z,7.73
2022-10-17T06:52:31.468Z,12.03
2022-10-17T06:55:21.478Z,6.20
2022-10-17T06:58:12.779Z,8.00
2022-10-17T07:01:05.088Z,7.60
2022-10-17T07:03:32.387Z,11.10
2022-10-17T07:06:00.521Z,6.27
2022-10-17T07:08:27.761Z,12.30
2022-10-17T07:10:54.951Z,16.73
2022-10-17T07:13:22.039Z,8.70
2022-10-17T07:15:48.753Z,9.00
2022-10-17T07:18:16.697Z,7.80
2022-10-17T07:20:43.980Z,8.77
2022-10-17T07:23:11.051Z,9.53
2022-10-17T07:25:40.143Z,7.97
2022-10-17T07:28:08.799Z,10.20
2022-10-17T07:30:35.628Z,8.57
2022-10-17T07:33:07.651Z,8.27
2022-10-17T07:35:34.661Z,9.23
2022-10-17T07:38:01.651Z,7.53
2022-10-17T07:40:28.418Z,7.73
2022-10-17T07:42:56.397Z,9.83
2022-10-17T07:45:28.004Z,7.10
2022-10-17T07:47:58.416Z,6.03
2022-10-17T07:50:25.551Z,6.87
2022-10-17T07:52:52.163Z,8.63
2022-10-17T07:55:18.870Z,7.40
2022-10-17T07:57:45.616Z,5.00
2022-10-17T08:00:12.762Z,5.33
2022-10-17T08:02:39.605Z,5.40
2022-10-17T08:05:06.706Z,6.33
2022-10-17T08:07:33.370Z,8.80
2022-10-17T08:10:00.066Z,4.50
2022-10-17T08:12:26.944Z,3.60
2022-10-17T08:14:53.709Z,4.40
2022-10-17T08:17:20.293Z,3.80
2022-10-17T08:19:46.933Z,9.00
2022-10-17T08:22:13.498Z,5.97
2022-10-17T08:24:40.112Z,7.67
2022-10-17T08:27:11.500Z,10.00
2022-10-17T08:29:39.506Z,12.53
2022-10-17T08:32:09.649Z,3.90
2022-10-17T08:34:36.529Z,2.63
2022-10-17T08:37:03.243Z,4.60
2022-10-17T08:39:29.823Z,3.70
2022-10-17T08:42:05.731Z,6.70
2022-10-17T08:45:18.799Z,3.87
2022-10-17T08:47:48.700Z,2.63
2022-10-17T08:50:29.466Z,4.37
2022-10-17T08:53:03.056Z,5.13
2022-10-17T08:55:34.580Z,4.77
2022-10-17T08:58:01.755Z,12.27
2022-10-17T09:00:31.241Z,3.43
2022-10-17T09:02:57.855Z,5.43
2022-10-17T09:05:42.161Z,3.90
2022-10-17T09:08:14.766Z,5.50
2022-10-17T09:10:57.933Z,3.97
2022-10-17T09:16:11.465Z,3.00
2022-10-17T09:18:57.815Z,3.43
2022-10-17T09:21:36.531Z,6.50
2022-10-17T09:24:15.393Z,4.53
2022-10-17T09:26:45.740Z,3.20
2022-10-17T09:29:40.212Z,4.03
2022-10-17T09:32:18.272Z,6.93
2022-10-17T09:34:44.951Z,5.20
2022-10-17T09:37:15.310Z,3.63
2022-10-17T09:39:43.525Z,5.13
2022-10-17T09:42:14.436Z,7.43
2022-10-17T09:45:04.698Z,4.30
2022-10-17T09:47:43.449Z,3.70
2022-10-17T09:50:22.821Z,4.30
2022-10-17T09:52:50.760Z,4.40
2022-10-17T09:55:21.090Z,5.67
2022-10-17T09:57:56.776Z,3.80
2022-10-17T10:00:29.927Z,6.93
2022-10-17T10:03:22.903Z,6.40
2022-10-17T10:06:11.559Z,4.07
2022-10-17T10:08:51.321Z,5.07
2022-10-17T10:11:19.885Z,5.87
2022-10-17T10:13:50.073Z,4.70
2022-10-17T10:16:16.760Z,6.07
2022-10-17T10:18:45.487Z,3.83
2022-10-17T10:21:17.211Z,5.70
2022-10-17T10:23:45.836Z,3.43
2022-10-17T10:26:22.231Z,8.03
2022-10-17T10:29:05.032Z,6.23
2022-10-17T10:31:35.729Z,3.97
2022-10-17T10:34:25.215Z,3.57
2022-10-17T10:36:51.746Z,3.80
2022-10-17T10:39:46.017Z,4.90
2022-10-17T10:42:39.435Z,6.03
2022-10-17T10:45:29.454Z,3.83
2022-10-17T10:48:20.836Z,3.23
2022-10-17T10:50:56.008Z,2.90
2022-10-17T10:53:47.366Z,3.10
2022-10-17T10:56:21.333Z,6.13
2022-10-17T10:58:47.885Z,5.50
2022-10-17T11:01:37.409Z,2.50
2022-10-17T11:04:13.118Z,5.00
2022-10-17T11:06:43.167Z,2.27
2022-10-17T11:09:45.078Z,4.50
2022-10-17T11:12:25.617Z,3.10
2022-10-17T11:15:03.230Z,5.00
2022-10-17T11:17:45.800Z,3.43
2022-10-17T11:20:20.898Z,3.47
2022-10-17T11:22:52.235Z,3.83
2022-10-17T11:25:40.421Z,4.83
2022-10-17T11:28:16.764Z,2.77
2022-10-17T11:30:52.424Z,3.80
2022-10-17T11:33:41.922Z,2.93
2022-10-17T11:36:10.325Z,5.10
2022-10-17T11:38:42.937Z,4.03
2022-10-17T11:41:15.525Z,3.53
2022-10-17T11:44:12.068Z,2.63
2022-10-17T11:46:41.686Z,2.40
2022-10-17T11:49:21.027Z,2.87
2022-10-17T11:52:37.344Z,4.50
2022-10-17T11:55:16.300Z,3.10
2022-10-17T11:58:14.029Z,2.50
2022-10-17T12:00:50.068Z,3.40
2022-10-17T12:03:22.924Z,3.00
2022-10-17T12:05:52.591Z,5.10
2022-10-17T12:08:44.127Z,5.43
2022-10-17T12:11:34.743Z,3.50
2022-10-17T12:14:05.758Z,3.60
2022-10-17T12:16:38.242Z,2.97
2022-10-17T12:19:10.924Z,3.53
2022-10-17T12:21:57.332Z,3.23
2022-10-17T12:24:44.048Z,3.07
2022-10-17T12:27:46.140Z,3.60
2022-10-17T12:30:13.437Z,3.80
2022-10-17T12:33:06.753Z,4.50
2022-10-17T12:35:36.734Z,3.60
2022-10-17T12:38:20.099Z,4.33
2022-10-17T12:40:49.959Z,5.20
2022-10-17T12:43:16.556Z,4.90
2022-10-17T12:45:49.267Z,3.70
2022-10-17T12:48:34.059Z,3.20
2022-10-17T12:51:35.793Z,3.57
2022-10-17T12:54:14.893Z,7.20
2022-10-17T12:56:47.303Z,4.40
2022-10-17T12:59:24.828Z,5.77
2022-10-17T13:02:03.443Z,4.90
2022-10-17T13:04:31.839Z,3.73
2022-10-17T13:07:01.033Z,4.00
2022-10-17T13:09:31.195Z,6.53
2022-10-17T13:12:00.459Z,5.37
2022-10-17T13:14:28.436Z,4.63
2022-10-17T13:16:58.395Z,5.80
2022-10-17T13:19:30.007Z,5.83
2022-10-17T13:22:06.829Z,4.10
2022-10-17T13:24:39.371Z,6.30
2022-10-17T13:27:24.360Z,6.17
2022-10-17T13:29:50.991Z,7.90
2022-10-17T13:32:17.669Z,5.40
2022-10-17T13:34:44.220Z,5.33
2022-10-17T13:37:15.407Z,5.90
2022-10-17T13:39:54.854Z,5.37
2022-10-17T13:42:30.978Z,4.97
2022-10-17T13:44:59.161Z,5.93
2022-10-17T13:47:28.445Z,5.57
2022-10-17T13:49:56.504Z,5.40
2022-10-17T13:52:29.950Z,5.60
2022-10-17T13:55:08.489Z,6.23
2022-10-17T13:57:35.245Z,7.90
2022-10-17T14:00:10.041Z,6.10
2022-10-17T14:02:41.861Z,6.30
2022-10-17T14:05:17.174Z,6.00
2022-10-17T14:08:15.233Z,7.70
2022-10-17T14:10:44.735Z,6.67
2022-10-17T14:13:20.466Z,7.40
2022-10-17T14:15:47.293Z,5.67
2022-10-17T14:18:20.967Z,6.60
2022-10-17T14:23:43.695Z,6.93
2022-10-17T14:26:12.789Z,6.07
2022-10-17T14:28:40.795Z,6.10
2022-10-17T14:31:22.148Z,8.70
2022-10-17T14:33:51.405Z,9.83
2022-10-17T14:36:20.255Z,5.93
2022-10-17T14:38:50.096Z,8.40
2022-10-17T14:41:44.860Z,6.97
2022-10-17T14:44:21.833Z,7.03
2022-10-17T14:46:53.225Z,6.97
2022-10-17T14:49:40.752Z,7.13
2022-10-17T14:52:29.224Z,7.70
2022-10-17T14:54:57.283Z,8.70
2022-10-17T14:57:44.238Z,9.47
2022-10-17T15:00:16.327Z,7.90
2022-10-17T15:02:43.973Z,9.03
2022-10-17T15:05:13.177Z,8.17
2022-10-17T15:07:41.505Z,9.00
2022-10-17T15:10:23.671Z,10.37
2022-10-17T15:12:58.834Z,10.83
2022-10-17T15:15:28.606Z,13.73
2022-10-17T15:17:55.375Z,8.47
2022-10-17T15:20:26.187Z,10.87
2022-10-17T15:22:54.719Z,8.60
2022-10-17T15:25:21.737Z,10.50
2022-10-17T15:27:48.438Z,9.83
2022-10-17T15:30:23.418Z,8.67
2022-10-17T15:32:50.863Z,9.50
2022-10-17T15:35:17.667Z,8.50
2022-10-17T15:37:46.616Z,8.57
2022-10-17T15:40:15.935Z,8.23
2022-10-17T15:42:42.914Z,8.37
2022-10-17T15:45:15.784Z,6.87
2022-10-17T15:47:46.543Z,9.33
2022-10-17T15:50:17.396Z,8.03
2022-10-17T15:52:44.326Z,7.57
2022-10-17T15:55:11.173Z,7.23
2022-10-17T15:57:42.640Z,7.57
2022-10-17T16:00:21.589Z,7.43
2022-10-17T16:02:49.478Z,8.27
2022-10-17T16:05:26.033Z,10.10
2022-10-17T16:07:53.630Z,9.33
2022-10-17T16:10:21.623Z,7.30
2022-10-17T16:12:49.986Z,7.63
2022-10-17T16:15:22.991Z,9.40
2022-10-17T16:17:50.688Z,8.40
2022-10-17T16:20:17.976Z,9.07
2022-10-17T16:22:45.130Z,7.63
2022-10-17T16:25:19.974Z,10.70
2022-10-17T16:27:48.133Z,12.73
2022-10-17T16:30:15.744Z,8.97
2022-10-17T16:32:42.465Z,7.40
2022-10-17T16:35:11.753Z,10.50
2022-10-17T16:37:38.581Z,12.67
2022-10-17T16:40:05.789Z,8.70
2022-10-17T16:42:32.813Z,22.17
2022-10-17T16:44:59.878Z,13.10
2022-10-17T16:47:26.664Z,10.00
2022-10-17T16:49:53.417Z,11.80
2022-10-17T16:52:20.109Z,8.60
2022-10-17T16:54:46.852Z,9.57
2022-10-17T16:57:13.452Z,11.07
2022-10-17T16:59:40.112Z,9.67
2022-10-17T17:02:07.160Z,9.10
2022-10-17T17:04:33.760Z,10.67
2022-10-17T17:07:00.393Z,10.33
2022-10-17T17:09:27.049Z,10.90
2022-10-17T17:11:53.704Z,9.90
2022-10-17T17:14:20.319Z,11.93
2022-10-17T17:16:49.945Z,12.37
2022-10-17T17:19:20.431Z,11.63
2022-10-17T17:21:53.167Z,9.53
2022-10-17T17:24:21.540Z,12.33
2022-10-17T17:26:53.343Z,13.13
2022-10-17T17:29:20.562Z,9.90
2022-10-17T17:31:47.364Z,13.50
2022-10-17T17:34:17.971Z,10.07
2022-10-17T17:36:45.358Z,12.30
2022-10-17T17:39:14.255Z,10.97
2022-10-17T17:41:41.516Z,12.30
2022-10-17T17:44:12.562Z,12.30
2022-10-17T17:46:43.660Z,9.30
2022-10-17T17:49:11.634Z,16.03
2022-10-17T17:51:38.774Z,14.00
2022-10-17T17:54:05.423Z,12.83
2022-10-17T17:56:32.268Z,25.10
2022-10-17T17:59:01.124Z,20.23
2022-10-17T18:01:30.974Z,26.47
2022-10-17T18:03:59.035Z,22.23
2022-10-17T18:06:26.516Z,24.47
2022-10-17T18:08:57.859Z,22.30
2022-10-17T18:11:25.805Z,28.63
2022-10-17T18:14:01.104Z,17.73
2022-10-17T18:16:29.168Z,16.40
2022-10-17T18:18:55.953Z,21.63
2022-10-17T18:21:23.413Z,17.60
2022-10-17T18:23:51.848Z,21.60
2022-10-17T18:26:19.191Z,17.87
2022-10-17T18:28:46.366Z,16.43
2022-10-17T18:31:15.578Z,16.63
2022-10-17T18:33:44.560Z,15.33
2022-10-17T18:36:13.527Z,14.30
2022-10-17T18:38:40.401Z,17.60
2022-10-17T18:41:10.252Z,16.40
2022-10-17T18:43:38.804Z,12.53
2022-10-17T18:46:12.268Z,13.63
2022-10-17T18:48:44.721Z,14.20
2022-10-17T18:51:12.106Z,17.97
2022-10-17T18:53:40.930Z,13.73
2022-10-17T18:56:08.129Z,14.57
2022-10-17T18:58:34.853Z,24.07
2022-10-17T19:01:03.671Z,23.53
2022-10-17T19:03:30.959Z,14.20
2022-10-17T19:06:01.292Z,14.40
2022-10-17T19:08:28.304Z,16.90
2022-10-17T19:10:55.005Z,18.50
2022-10-17T19:13:21.910Z,15.73
2022-10-17T19:15:48.563Z,19.37
2022-10-17T19:18:15.166Z,14.93
2022-10-17T19:20:41.823Z,15.03
2022-10-17T19:23:08.486Z,13.47
2022-10-17T19:25:38.005Z,14.03
2022-10-17T19:28:04.843Z,13.57
2022-10-17T19:30:31.447Z,13.50
2022-10-17T19:32:58.080Z,20.30
2022-10-17T19:35:25.141Z,18.60
2022-10-17T19:37:52.162Z,16.77
2022-10-17T19:40:18.835Z,18.83
2022-10-17T19:42:45.490Z,15.20
2022-10-17T19:45:12.158Z,17.50
2022-10-17T19:47:39.784Z,16.17
2022-10-17T19:50:07.017Z,14.40
2022-10-17T19:52:33.786Z,56.20
2022-10-17T19:55:00.592Z,35.77
2022-10-17T19:57:27.327Z,31.93
2022-10-17T19:59:57.460Z,26.07
2022-10-17T20:02:24.155Z,19.10
2022-10-17T20:05:06.310Z,19.20
2022-10-17T20:07:37.358Z,17.07
2022-10-17T20:10:04.244Z,26.07
2022-10-17T20:12:31.066Z,23.27
2022-10-17T20:14:58.049Z,21.80
2022-10-17T20:17:24.875Z,20.43
2022-10-17T20:19:51.797Z,22.57
2022-10-17T20:22:18.386Z,22.73
2022-10-17T20:24:45.236Z,21.00
2022-10-17T20:27:11.842Z,23.90
2022-10-17T20:29:38.651Z,18.80
2022-10-17T20:32:05.440Z,17.37
2022-10-17T20:34:35.529Z,19.93
2022-10-17T20:37:02.387Z,18.77
2022-10-17T20:39:29.695Z,16.53
2022-10-17T20:41:56.580Z,13.33
2022-10-17T20:44:23.238Z,11.27
2022-10-17T20:47:01.300Z,12.87
2022-10-17T20:49:31.763Z,14.63
2022-10-17T20:51:59.380Z,13.30
2022-10-17T20:54:27.803Z,11.10
2022-10-17T20:56:55.435Z,9.53
2022-10-17T20:59:21.992Z,11.10
2022-10-17T21:01:48.729Z,10.27
2022-10-17T21:04:44.169Z,18.13
2022-10-17T21:07:02.235Z,12.60
2022-10-17T21:09:28.969Z,19.53
2022-10-17T21:11:56.832Z,10.00
2022-10-17T21:14:25.052Z,15.47
2022-10-17T21:16:52.346Z,14.53
2022-10-17T21:19:19.472Z,14.63
2022-10-17T21:21:46.780Z,23.17
2022-10-17T21:24:17.333Z,40.20
2022-10-17T21:26:45.691Z,21.33
2022-10-17T21:29:13.311Z,22.37
2022-10-17T21:31:41.831Z,17.70
2022-10-17T21:34:15.268Z,16.43
2022-10-17T21:36:42.114Z,13.80
2022-10-17T21:39:11.395Z,17.40
2022-10-17T21:41:38.287Z,15.77
2022-10-17T21:44:11.605Z,10.40
2022-10-17T21:46:38.449Z,10.23
2022-10-17T21:49:05.082Z,18.80
2022-10-17T21:51:31.776Z,11.20
2022-10-17T21:53:59.284Z,11.70
2022-10-17T21:56:28.639Z,8.37
2022-10-17T21:58:56.565Z,13.33
2022-10-17T22:01:27.698Z,12.60
2022-10-17T22:03:56.948Z,10.03
2022-10-17T22:06:39.287Z,9.87
2022-10-17T22:09:11.915Z,10.97
2022-10-17T22:11:38.812Z,10.90
2022-10-17T22:14:10.190Z,15.03
2022-10-17T22:16:38.394Z,8.43
2022-10-17T22:19:06.844Z,11.63
2022-10-17T22:21:35.596Z,9.50
2022-10-17T22:24:07.708Z,14.77
2022-10-17T22:26:36.707Z,7.80
2022-10-17T22:29:05.073Z,8.63
2022-10-17T22:31:31.781Z,8.73
2022-10-17T22:33:58.415Z,8.30
2022-10-17T22:36:25.266Z,9.73
2022-10-17T22:38:51.946Z,9.40
2022-10-17T22:41:18.739Z,6.83
2022-10-17T22:43:45.425Z,7.43
2022-10-17T22:46:14.192Z,7.50
2022-10-17T22:48:41.191Z,15.80
2022-10-17T22:51:08.536Z,11.40
2022-10-17T22:53:37.344Z,12.10
2022-10-17T22:56:07.823Z,10.13
2022-10-17T22:58:35.896Z,7.40
2022-10-17T23:01:03.698Z,10.80
2022-10-17T23:03:31.711Z,11.03
2022-10-17T23:05:58.810Z,7.23
2022-10-17T23:08:27.125Z,6.87
2022-10-17T23:10:54.496Z,13.70
2022-10-17T23:13:22.019Z,7.90
2022-10-17T23:15:53.612Z,8.27
2022-10-17T23:18:21.687Z,6.70
2022-10-17T23:20:48.856Z,10.10
2022-10-17T23:23:16.265Z,9.33
2022-10-17T23:25:43.023Z,8.13
2022-10-17T23:28:10.472Z,8.40
2022-10-17T23:30:39.007Z,14.33
2022-10-17T23:33:06.866Z,11.13
2022-10-17T23:35:34.504Z,8.90
2022-10-17T23:38:01.279Z,8.80
2022-10-17T23:40:28.185Z,12.10
2022-10-17T23:42:55.057Z,11.47
2022-10-17T23:45:22.067Z,9.80
2022-10-17T23:47:48.917Z,8.80
2022-10-17T23:50:16.502Z,8.87
2022-10-17T23:52:43.849Z,9.60
2022-10-17T23:55:11.066Z,13.43
2022-10-17T23:57:37.895Z,11.10
